< Typhoon 201913 2019 Season Typhoon 201915 >
Typhoon 201914 (KAJIKI)
General InformationTrack Information on Google MapsDetailed Wind InformationForecast History on Google MapsAccess Analytics MapList of All Images || NewsDisaster Info.WeblogTrackbackTyphoon FrontTwiphoonTyphoon Now!Typhoon ImaginationJMA Disaster Info. XMLResourceGoogle EarthGE AnimationAtom FeedGeoJSON
Detalied Best Track (Time Zone = UTC)
Year Month Day Hour Lat. Long. Pressure (hPa) Wind (kt) Class Image Chart
2019 8 30 00 18.2 126.3 1008 0 2 Image Chart
2019 8 30 06 18.1 125.9 1006 0 2 Image Chart
2019 8 30 12 18.1 125.0 1006 0 2 Image Chart
2019 8 30 18 18.1 123.8 1006 0 2 Image Chart
2019 8 31 00 18.3 122.7 1006 0 2 Image Chart
2019 8 31 06 19.5 121.9 1004 0 2 Image Chart
2019 8 31 12 19.0 120.5 1004 0 2 Image Chart
2019 8 31 18 19.3 118.6 1002 0 2 Image Chart
2019 9 1 00 19.0 117.3 1002 0 2 Image Chart
2019 9 1 06 19.0 115.4 1000 0 2 Image Chart
2019 9 1 12 19.0 113.6 1000 0 2 Image Chart
2019 9 1 18 18.9 112.4 1000 0 2 Image Chart
2019 9 2 00 18.7 111.4 998 0 2 Image Chart
2019 9 2 06 18.4 109.3 998 0 2 Image Chart
2019 9 2 12 17.2 108.4 996 35 3 Image Chart
2019 9 2 18 16.4 107.4 996 35 3 Image Chart
2019 9 3 00 15.7 106.9 998 35 3 Image Chart
2019 9 3 06 16.0 107.8 998 35 3 Image Chart
2019 9 3 12 16.4 108.5 998 0 2 Image Chart
2019 9 3 18 16.7 108.0 998 0 2 Image Chart
2019 9 4 00 16.7 107.9 998 0 2 Image Chart
2019 9 4 06 16.7 108.0 998 0 2 Image Chart
2019 9 4 12 16.6 108.8 998 0 2 Image Chart
2019 9 4 18 17.2 109.2 1000 0 2 Image Chart
2019 9 5 00 17.6 110.2 1000 0 2 Image Chart
2019 9 5 06 18.2 111.6 1000 0 2 Image Chart
2019 9 5 12 19.1 112.8 1000 0 2 Image Chart
2019 9 5 18 19.6 113.0 1000 0 2 Image Chart
2019 9 6 00 19.4 112.3 1000 0 2 Image Chart
2019 9 6 06 18.6 112.5 1000 0 2 Image Chart
Japan Meteorological Agency Best Track Data | Correction Date : 2019-11-14
< Typhoon 201913 2019 Season Typhoon 201915 >

Help